createdAt,value
2018-07-07T03:42:01.583Z,99916.55
2018-07-07T03:44:49.530Z,99927.05
2018-07-07T03:47:39.230Z,99927.00
2018-07-07T03:50:27.204Z,99924.08
2018-07-07T03:53:15.383Z,99921.56
2018-07-07T03:56:03.593Z,99918.75
2018-07-07T03:58:51.063Z,99912.08
2018-07-07T04:01:39.631Z,99913.14
2018-07-07T04:04:53.218Z,99911.23
2018-07-07T04:07:40.775Z,99908.73
2018-07-07T04:10:27.775Z,99912.39
2018-07-07T04:13:14.729Z,99910.39
2018-07-07T04:19:01.504Z,99911.16
2018-07-07T04:21:47.693Z,99913.39
2018-07-07T04:24:36.418Z,99914.36
2018-07-07T04:27:22.533Z,99913.06
2018-07-07T04:30:09.011Z,99915.61
2018-07-07T04:32:57.222Z,99915.44
2018-07-07T04:35:43.888Z,99908.83
2018-07-07T04:38:31.494Z,99904.16
2018-07-07T04:44:27.857Z,99910.59
2018-07-07T04:47:15.618Z,99905.47
2018-07-07T04:50:03.083Z,99897.44
2018-07-07T04:52:48.926Z,99901.86
2018-07-07T04:55:36.297Z,99891.09
2018-07-07T04:58:24.911Z,99895.84
2018-07-07T05:01:12.495Z,99888.91
2018-07-07T05:03:59.018Z,99885.96
2018-07-07T05:06:45.372Z,99885.40
2018-07-07T05:09:33.378Z,99885.93
2018-07-07T05:12:20.334Z,99888.09
2018-07-07T05:15:08.905Z,99885.99
2018-07-07T05:17:58.139Z,99886.27
2018-07-07T05:20:48.306Z,99879.02
2018-07-07T05:23:36.292Z,99880.64
2018-07-07T05:26:23.281Z,99876.08
2018-07-07T05:29:10.064Z,99881.02
2018-07-07T05:32:05.137Z,99877.06
2018-07-07T05:34:52.454Z,99866.83
2018-07-07T05:37:38.964Z,99857.47
2018-07-07T05:40:28.101Z,99855.37
2018-07-07T05:43:15.170Z,99854.73
2018-07-07T05:46:02.882Z,99851.22
2018-07-07T05:48:51.131Z,99852.09
2018-07-07T05:51:39.062Z,99852.59
2018-07-07T05:54:27.223Z,99844.55
2018-07-07T05:57:14.626Z,99843.48
2018-07-07T06:00:02.740Z,99833.48
2018-07-07T06:03:24.024Z,99826.95
2018-07-07T06:06:37.531Z,99820.14
2018-07-07T06:09:41.760Z,99815.23
2018-07-07T06:12:30.959Z,99811.68
2018-07-07T06:15:18.375Z,99803.91
2018-07-07T06:18:04.511Z,99800.39
2018-07-07T06:20:51.529Z,99792.08
2018-07-07T06:23:39.178Z,99787.59
2018-07-07T06:26:25.925Z,99783.06
2018-07-07T06:29:13.902Z,99774.45
2018-07-07T06:32:01.008Z,99774.69
2018-07-07T06:34:47.362Z,99773.76
2018-07-07T06:37:35.331Z,99765.63
2018-07-07T06:40:23.929Z,99767.38
2018-07-07T06:43:11.027Z,99755.63
2018-07-07T06:45:57.952Z,99748.73
2018-07-07T06:48:46.988Z,99741.80
2018-07-07T06:51:35.868Z,99737.94
2018-07-07T06:54:24.716Z,99721.31
2018-07-07T06:57:13.583Z,99723.18
2018-07-07T06:59:59.231Z,99720.09
2018-07-07T07:02:46.641Z,99718.47
2018-07-07T07:05:35.351Z,99706.14
2018-07-07T07:08:24.649Z,99704.86
2018-07-07T07:11:10.299Z,99704.47
2018-07-07T07:13:58.640Z,99699.36
2018-07-07T07:16:45.975Z,99695.37
2018-07-07T07:19:35.043Z,99688.19
2018-07-07T07:22:22.427Z,99689.00
2018-07-07T07:25:09.097Z,99688.52
2018-07-07T07:27:57.099Z,99684.42
2018-07-07T07:30:43.762Z,99676.94
2018-07-07T07:33:31.787Z,99684.31
2018-07-07T07:36:20.023Z,99680.09
2018-07-07T07:39:07.536Z,99676.65
2018-07-07T07:41:54.603Z,99677.51
2018-07-07T07:44:41.972Z,99677.74
2018-07-07T07:47:30.696Z,99675.95
2018-07-07T07:50:17.411Z,99669.16
2018-07-07T07:53:03.733Z,99665.44
2018-07-07T07:55:52.181Z,99657.67
2018-07-07T07:58:39.707Z,99650.93
2018-07-07T08:01:31.059Z,99656.02
2018-07-07T08:04:21.771Z,99661.95
2018-07-07T08:07:07.085Z,99669.31
2018-07-07T08:10:05.248Z,99669.12
2018-07-07T08:12:50.962Z,99680.70
2018-07-07T08:15:38.003Z,99693.48
2018-07-07T08:18:24.527Z,99692.47
2018-07-07T08:21:33.424Z,99678.07
2018-07-07T08:24:20.129Z,99674.70
2018-07-07T08:27:06.529Z,99675.36
2018-07-07T08:29:52.342Z,99668.73
2018-07-07T08:32:39.064Z,99671.77
2018-07-07T08:35:25.052Z,99667.78
2018-07-07T08:38:17.455Z,99674.44
2018-07-07T08:41:03.529Z,99664.30
2018-07-07T08:43:49.890Z,99670.06
2018-07-07T08:46:37.386Z,99666.88
2018-07-07T08:49:24.257Z,99660.38
2018-07-07T08:52:10.511Z,99684.95
2018-07-07T08:54:56.011Z,99689.80
2018-07-07T08:57:41.382Z,99703.27
2018-07-07T09:00:28.106Z,99711.03
2018-07-07T09:03:14.085Z,99718.28
2018-07-07T09:06:00.488Z,99718.81
2018-07-07T09:08:46.729Z,99712.33
2018-07-07T09:11:32.299Z,99708.60
2018-07-07T09:18:17.923Z,99685.75
2018-07-07T09:21:05.327Z,99670.44
2018-07-07T09:27:13.849Z,99652.66
2018-07-07T09:30:00.685Z,99644.99
2018-07-07T09:32:47.852Z,99632.94
2018-07-07T09:35:34.730Z,99631.44
2018-07-07T09:38:23.008Z,99617.84
2018-07-07T09:41:10.020Z,99615.58
2018-07-07T09:46:55.374Z,99616.53
2018-07-07T09:49:50.375Z,99615.59
2018-07-07T09:52:38.001Z,99612.42
2018-07-07T10:02:09.136Z,99603.46
2018-07-07T10:11:34.244Z,99604.98
2018-07-07T10:14:20.411Z,99607.00
2018-07-07T10:17:10.775Z,99609.19
2018-07-07T10:20:00.413Z,99596.02
2018-07-07T10:26:32.774Z,99592.63
2018-07-07T10:29:19.863Z,99597.40
2018-07-07T10:32:07.646Z,99602.77
2018-07-07T10:34:54.478Z,99592.63
2018-07-07T10:37:45.292Z,99590.77
2018-07-07T10:40:32.183Z,99587.09
2018-07-07T10:43:30.182Z,99584.69
2018-07-07T10:46:18.524Z,99583.41
2018-07-07T10:49:10.042Z,99580.48
2018-07-07T10:51:57.209Z,99582.17
2018-07-07T10:54:43.684Z,99575.22
2018-07-07T10:57:29.774Z,99576.06
2018-07-07T11:00:16.894Z,99578.00
2018-07-07T11:03:02.839Z,99573.73
2018-07-07T11:05:48.800Z,99573.02
2018-07-07T11:08:35.611Z,99572.02
2018-07-07T11:11:23.809Z,99562.62
2018-07-07T11:14:11.367Z,99566.00
2018-07-07T11:16:57.291Z,99566.31
2018-07-07T11:19:45.887Z,99569.34
2018-07-07T11:22:32.916Z,99575.27
2018-07-07T11:25:20.971Z,99570.74
2018-07-07T11:28:07.369Z,99567.06
2018-07-07T11:30:54.045Z,99559.63
2018-07-07T11:33:41.388Z,99562.91
2018-07-07T11:36:29.241Z,99573.11
2018-07-07T11:39:16.764Z,99568.83
2018-07-07T11:42:03.781Z,99578.23
2018-07-07T11:44:49.976Z,99578.48
2018-07-07T11:47:40.009Z,99583.38
2018-07-07T11:50:26.812Z,99583.20
2018-07-07T11:53:14.696Z,99590.97
2018-07-07T11:56:02.845Z,99592.72
2018-07-07T11:58:48.601Z,99595.13
2018-07-07T12:01:35.957Z,99601.23
2018-07-07T12:04:22.497Z,99596.37
2018-07-07T12:07:10.559Z,99597.96
2018-07-07T12:09:57.859Z,99599.02
2018-07-07T12:12:45.104Z,99596.52
2018-07-07T12:15:31.383Z,99597.02
2018-07-07T12:18:19.488Z,99601.27
2018-07-07T12:21:07.226Z,99608.75
2018-07-07T12:23:53.335Z,99613.55
2018-07-07T12:26:40.972Z,99621.81
2018-07-07T12:29:29.180Z,99621.88
2018-07-07T12:32:15.616Z,99622.13
2018-07-07T12:35:01.977Z,99626.30
2018-07-07T12:38:00.575Z,99637.39
2018-07-07T12:40:47.319Z,99639.50
2018-07-07T12:43:33.732Z,99633.50
2018-07-07T12:46:20.987Z,99637.45
2018-07-07T12:49:09.468Z,99643.24
2018-07-07T12:51:57.385Z,99648.17
2018-07-07T12:54:49.414Z,99655.82
2018-07-07T12:57:37.614Z,99661.84
2018-07-07T13:00:24.062Z,99659.33
2018-07-07T13:03:28.592Z,99655.44
2018-07-07T13:06:18.178Z,99662.13
2018-07-07T13:09:05.693Z,99666.81
2018-07-07T13:11:53.712Z,99673.05
2018-07-07T13:14:42.206Z,99674.03
2018-07-07T13:17:29.055Z,99681.39
2018-07-07T13:20:15.624Z,99685.61
2018-07-07T13:23:03.167Z,99692.99
2018-07-07T13:25:50.097Z,99696.06
2018-07-07T13:28:39.324Z,99694.97
2018-07-07T13:31:26.093Z,99694.39
2018-07-07T13:34:11.735Z,99693.91
2018-07-07T13:36:59.136Z,99695.73
2018-07-07T13:39:46.804Z,99706.13
2018-07-07T13:42:35.064Z,99712.02
2018-07-07T13:45:21.261Z,99718.95
2018-07-07T13:48:08.446Z,99724.31
2018-07-07T13:50:56.614Z,99733.45
2018-07-07T13:53:45.252Z,99738.89
2018-07-07T13:56:32.702Z,99735.02
2018-07-07T13:59:19.329Z,99736.36
2018-07-07T14:02:05.842Z,99741.48
2018-07-07T14:07:42.583Z,99745.61
2018-07-07T14:10:29.453Z,99756.11
2018-07-07T14:13:17.466Z,99766.64
2018-07-07T14:16:04.747Z,99770.09
2018-07-07T14:18:53.732Z,99777.46
2018-07-07T14:21:41.375Z,99773.02
2018-07-07T14:24:29.444Z,99784.02
2018-07-07T14:27:15.022Z,99783.73
2018-07-07T14:30:02.207Z,99778.55
2018-07-07T14:32:50.705Z,99779.81
2018-07-07T14:35:38.778Z,99772.77
2018-07-07T14:38:30.351Z,99772.77
2018-07-07T14:42:23.107Z,99768.14
2018-07-07T14:45:13.725Z,99768.23
2018-07-07T14:48:02.745Z,99772.01
2018-07-07T14:50:49.883Z,99781.62
2018-07-07T14:53:36.932Z,99787.06
2018-07-07T14:56:25.243Z,99791.61
2018-07-07T14:59:12.790Z,99797.11
2018-07-07T15:02:00.171Z,99802.17
2018-07-07T15:04:48.918Z,99804.53
2018-07-07T15:07:40.643Z,99811.66
2018-07-07T15:10:37.071Z,99805.80
2018-07-07T15:13:25.308Z,99807.67
2018-07-07T15:16:12.769Z,99810.64
2018-07-07T15:19:01.526Z,99813.78
2018-07-07T15:21:48.987Z,99817.70
2018-07-07T15:24:36.083Z,99810.48
2018-07-07T15:27:23.239Z,99815.49
2018-07-07T15:30:11.418Z,99823.81
2018-07-07T15:32:57.414Z,99827.67
2018-07-07T15:35:43.909Z,99831.39
2018-07-07T15:38:30.265Z,99827.52
2018-07-07T15:41:46.470Z,99825.14
2018-07-07T15:44:35.675Z,99817.63
2018-07-07T15:47:22.494Z,99819.78
2018-07-07T15:50:08.967Z,99820.83
2018-07-07T15:52:55.620Z,99814.89
2018-07-07T15:55:44.270Z,99830.00
2018-07-07T15:58:36.547Z,99832.45
2018-07-07T16:01:23.820Z,99827.75
2018-07-07T16:04:11.383Z,99835.94
2018-07-07T16:06:57.953Z,99826.47
2018-07-07T16:19:23.372Z,99846.25
2018-07-07T16:22:10.532Z,99836.02
2018-07-07T16:24:56.259Z,99832.29
2018-07-07T16:27:42.652Z,99830.20
2018-07-07T16:30:58.182Z,99829.67
2018-07-07T16:33:44.269Z,99831.63
2018-07-07T16:36:30.986Z,99826.70
2018-07-07T16:39:19.574Z,99824.72
2018-07-07T16:42:06.212Z,99824.72
2018-07-07T16:44:54.371Z,99819.38
2018-07-07T16:47:40.934Z,99817.41
2018-07-07T16:50:29.703Z,99823.30
2018-07-07T16:53:17.493Z,99821.66
2018-07-07T16:56:03.799Z,99816.69
2018-07-07T16:58:49.307Z,99816.17
2018-07-07T17:01:37.423Z,99818.23
2018-07-07T17:04:23.745Z,99812.88
2018-07-07T17:07:12.780Z,99812.59
2018-07-07T17:09:59.263Z,99802.87
2018-07-07T17:12:46.409Z,99801.88
2018-07-07T17:15:32.845Z,99798.45
2018-07-07T17:18:22.076Z,99799.59
2018-07-07T17:21:23.028Z,99795.78
2018-07-07T17:27:55.228Z,99785.59
2018-07-07T17:34:06.430Z,99790.07
2018-07-07T17:36:54.635Z,99794.96
2018-07-07T17:39:40.978Z,99788.73
2018-07-07T17:42:28.854Z,99789.55
2018-07-07T17:45:16.965Z,99787.16
2018-07-07T17:48:06.547Z,99782.27
2018-07-07T17:50:54.457Z,99779.31
2018-07-07T17:53:45.266Z,99784.95
2018-07-07T17:56:32.147Z,99782.27
2018-07-07T17:59:21.426Z,99776.11
2018-07-07T18:02:11.412Z,99771.42
2018-07-07T18:04:58.073Z,99776.62
2018-07-07T18:07:47.108Z,99766.36
2018-07-07T18:10:34.890Z,99765.25
2018-07-07T18:13:22.705Z,99764.44
2018-07-07T18:16:10.192Z,99760.78
2018-07-07T18:18:58.031Z,99764.21
2018-07-07T18:21:46.795Z,99764.21
2018-07-07T18:24:34.380Z,99762.05
2018-07-07T18:27:23.545Z,99753.73
